Terminal Aerodrome Forecast
Issued by NWS

Current Version | Previous Version | Text Only | Print | Product List | Glossary Off
Versions: 1 2 3 4 5 6 7 8 9 10 11 12 13 14 15 16 17 18

000
FTUS41 KILN 182100 AAA
TAFLCK
TAF AMD
KLCK 182100Z 1821/1918 05007G14KT P6SM SCT060
     FM190000 VRB03KT P6SM SKC
     FM191400 08006KT P6SM FEW050=

USA.gov is the U.S. government's official web portal to all federal, state and local government web resources and services.